Time;durP1;ratioP1;P1;durP2;ratioP2;P2;SDS_P1;SDS_P2;PMS_P1;PMS_P2;Temp;Humidity;BMP_temperature;BMP_pressure;BME280_temperature;BME280_humidity;BME280_pressure;Samples;Min_cycle;Max_cycle;Signal;HPM_P1;HPM_P2
2023/03/29 00:00:12;;;;;;;2.58;2.38;;;;;;;;;;2053781;28;20018;-78
2023/03/29 00:01:31;;;;;;;2.97;2.20;;;;;;;;;;2057809;28;20066;-78
2023/03/29 00:02:50;;;;;;;3.88;2.10;;;;;;;;;;2058290;28;20031;-78
2023/03/29 00:04:12;;;;;;;1.95;1.83;;;;;;;;;;2059882;28;20027;-79
2023/03/29 00:05:33;;;;;;;3.55;2.15;;;;;;;;;;2064637;28;20073;-78
2023/03/29 00:06:53;;;;;;;5.95;2.10;;;;;;;;;;2063837;28;20034;-78
2023/03/29 00:08:13;;;;;;;2.20;2.00;;;;;;;;;;2058451;28;20035;-77
2023/03/29 00:09:32;;;;;;;3.50;2.40;;;;;;;;;;2058560;28;20072;-78
2023/03/29 00:10:52;;;;;;;3.67;2.17;;;;;;;;;;2059293;28;20019;-78
2023/03/29 00:12:11;;;;;;;5.20;2.20;;;;;;;;;;2055643;28;20031;-78
2023/03/29 00:13:30;;;;;;;6.28;2.67;;;;;;;;;;2055471;28;20038;-78
2023/03/29 00:14:49;;;;;;;2.95;1.90;;;;;;;;;;2058390;28;20027;-78
2023/03/29 00:16:09;;;;;;;3.50;2.10;;;;;;;;;;2059402;28;20030;-77
2023/03/29 00:17:28;;;;;;;3.55;2.15;;;;;;;;;;2060864;28;20027;-77
2023/03/29 00:18:47;;;;;;;6.32;2.05;;;;;;;;;;2060706;28;20688;-78
2023/03/29 00:20:09;;;;;;;5.13;2.00;;;;;;;;;;2075436;28;20481;-78
2023/03/29 00:21:28;;;;;;;5.10;2.10;;;;;;;;;;2066504;28;20038;-78
2023/03/29 00:22:47;;;;;;;2.65;1.88;;;;;;;;;;2059906;28;20035;-77
2023/03/29 00:24:06;;;;;;;3.88;2.45;;;;;;;;;;2058332;28;20031;-78
2023/03/29 00:25:26;;;;;;;6.40;2.67;;;;;;;;;;2059350;28;20027;-78
2023/03/29 00:26:45;;;;;;;2.97;1.85;;;;;;;;;;2059625;28;20090;-78
2023/03/29 00:28:04;;;;;;;6.07;2.30;;;;;;;;;;2061375;28;20038;-78
2023/03/29 00:29:23;;;;;;;7.15;2.03;;;;;;;;;;2060524;28;20049;-78
2023/03/29 00:30:42;;;;;;;2.83;1.85;;;;;;;;;;2056766;28;20015;-78
2023/03/29 00:32:00;;;;;;;3.28;1.77;;;;;;;;;;2059812;28;20396;-78
2023/03/29 00:33:19;;;;;;;3.70;1.70;;;;;;;;;;2057775;28;20035;-78
2023/03/29 00:34:41;;;;;;;4.80;2.08;;;;;;;;;;2056806;28;20030;-78
2023/03/29 00:36:00;;;;;;;2.58;1.70;;;;;;;;;;2061340;28;20019;-77
2023/03/29 00:37:19;;;;;;;3.22;2.05;;;;;;;;;;2059815;28;20030;-77
2023/03/29 00:38:39;;;;;;;3.20;1.90;;;;;;;;;;2057789;28;20030;-78
2023/03/29 00:39:58;;;;;;;1.92;1.52;;;;;;;;;;2058760;28;20034;-78
2023/03/29 00:41:17;;;;;;;1.98;1.80;;;;;;;;;;2060258;28;20027;-77
2023/03/29 00:42:36;;;;;;;3.92;2.22;;;;;;;;;;2057175;28;20421;-77
2023/03/29 00:43:57;;;;;;;2.50;1.75;;;;;;;;;;2062407;28;20503;-77
2023/03/29 00:45:24;;;;;;;5.38;2.30;;;;;;;;;;2060296;28;20030;-78
2023/03/29 00:46:43;;;;;;;2.65;1.75;;;;;;;;;;2055872;28;20505;-77
2023/03/29 00:48:05;;;;;;;2.15;1.95;;;;;;;;;;2056566;28;20050;-78
2023/03/29 00:49:25;;;;;;;3.25;1.23;;;;;;;;;;2060022;28;20606;-78
2023/03/29 00:50:50;;;;;;;4.78;1.88;;;;;;;;;;2059025;28;20026;-77
2023/03/29 00:52:09;;;;;;;6.70;2.33;;;;;;;;;;2058672;28;20030;-77
2023/03/29 00:53:32;;;;;;;2.20;1.73;;;;;;;;;;2059700;28;20111;-77
2023/03/29 00:54:53;;;;;;;3.20;2.28;;;;;;;;;;2059246;28;20106;-77
2023/03/29 00:56:14;;;;;;;5.40;1.83;;;;;;;;;;2057686;28;20492;-77
2023/03/29 00:57:33;;;;;;;3.10;1.90;;;;;;;;;;2056778;28;20035;-77
2023/03/29 00:58:56;;;;;;;2.53;1.88;;;;;;;;;;2058799;28;20054;-77
2023/03/29 01:00:17;;;;;;;3.80;1.80;;;;;;;;;;2058911;28;20574;-78
2023/03/29 01:01:49;;;;;;;4.65;1.83;;;;;;;;;;2073457;28;20033;-76
2023/03/29 01:03:12;;;;;;;1.75;1.55;;;;;;;;;;2068710;28;20051;-77
2023/03/29 01:04:32;;;;;;;2.92;1.83;;;;;;;;;;2074812;28;20037;-77
2023/03/29 01:06:06;;;;;;;2.50;1.60;;;;;;;;;;2067145;28;20066;-78
2023/03/29 01:07:34;;;;;;;3.88;1.63;;;;;;;;;;2058270;28;20573;-77
2023/03/29 01:08:54;;;;;;;4.97;1.70;;;;;;;;;;2055792;28;20392;-77
2023/03/29 01:10:24;;;;;;;2.72;2.28;;;;;;;;;;2052958;28;20027;-78
2023/03/29 01:11:47;;;;;;;2.40;1.90;;;;;;;;;;2056362;28;20102;-77
2023/03/29 01:13:11;;;;;;;2.42;1.70;;;;;;;;;;2072189;28;20491;-77
2023/03/29 01:14:33;;;;;;;3.70;1.85;;;;;;;;;;2063060;28;20039;-78
2023/03/29 01:15:53;;;;;;;6.93;2.22;;;;;;;;;;2065392;28;20019;-78
2023/03/29 01:17:11;;;;;;;3.63;1.70;;;;;;;;;;2064185;28;20030;-77
2023/03/29 01:18:32;;;;;;;2.92;1.80;;;;;;;;;;2073486;28;20507;-77
2023/03/29 01:19:57;;;;;;;3.85;2.22;;;;;;;;;;2061728;28;20484;-78
2023/03/29 01:21:15;;;;;;;3.70;2.00;;;;;;;;;;2076553;28;20026;-77
2023/03/29 01:22:37;;;;;;;1.75;1.65;;;;;;;;;;2062082;28;20520;-77
2023/03/29 01:24:05;;;;;;;6.65;2.13;;;;;;;;;;2058230;28;20034;-77
2023/03/29 01:25:33;;;;;;;2.83;2.03;;;;;;;;;;2060476;28;20031;-77
2023/03/29 01:27:12;;;;;;;2.30;2.10;;;;;;;;;;2057865;28;20039;-77
2023/03/29 01:28:34;;;;;;;3.85;1.90;;;;;;;;;;2065343;28;20504;-77
2023/03/29 01:29:59;;;;;;;3.53;1.15;;;;;;;;;;2062472;28;20047;-78
2023/03/29 01:31:38;;;;;;;2.70;1.88;;;;;;;;;;2056817;28;20019;-77
2023/03/29 01:33:20;;;;;;;2.45;1.80;;;;;;;;;;2072472;28;20039;-78
2023/03/29 01:34:38;;;;;;;3.72;1.88;;;;;;;;;;2060702;28;20031;-78
2023/03/29 01:36:03;;;;;;;4.30;1.90;;;;;;;;;;2060158;28;20042;-78
2023/03/29 01:37:26;;;;;;;4.43;2.17;;;;;;;;;;2071198;28;20030;-77
2023/03/29 01:38:50;;;;;;;3.42;1.77;;;;;;;;;;2068518;28;20117;-78
2023/03/29 01:40:10;;;;;;;3.58;2.42;;;;;;;;;;2063045;28;20034;-78
2023/03/29 01:41:42;;;;;;;3.33;1.67;;;;;;;;;;2058727;28;20030;-77
2023/03/29 01:43:03;;;;;;;2.70;1.75;;;;;;;;;;2059995;28;20030;-78
2023/03/29 01:44:36;;;;;;;4.45;2.00;;;;;;;;;;2060208;28;20027;-77
2023/03/29 01:45:55;;;;;;;;;;;;;;;;;;2062600;28;20054;-78
2023/03/29 01:47:30;;;;;;;4.25;2.00;;;;;;;;;;2061793;28;19917;-78
2023/03/29 01:48:55;;;;;;;3.72;2.20;;;;;;;;;;2059951;28;20022;-77
2023/03/29 01:50:16;;;;;;;10.20;2.30;;;;;;;;;;2060893;28;20061;-78
2023/03/29 01:52:05;;;;;;;3.63;1.98;;;;;;;;;;2059814;28;20031;-78
2023/03/29 01:53:28;;;;;;;8.07;2.15;;;;;;;;;;2059038;28;20067;-78
2023/03/29 01:55:13;;;;;;;2.28;2.03;;;;;;;;;;2062297;28;20039;-79
2023/03/29 01:56:35;;;;;;;6.30;2.20;;;;;;;;;;2061110;28;20752;-78
2023/03/29 01:57:55;;;;;;;2.75;2.08;;;;;;;;;;2061805;28;20031;-78
2023/03/29 01:59:16;;;;;;;2.13;1.60;;;;;;;;;;2060596;28;20399;-78
2023/03/29 02:00:39;;;;;;;3.78;2.00;;;;;;;;;;2063619;28;20450;-79
2023/03/29 02:02:00;;;;;;;5.18;2.20;;;;;;;;;;2063890;28;20038;-79
2023/03/29 02:03:22;;;;;;;3.25;2.17;;;;;;;;;;2075354;28;20058;-79
2023/03/29 02:04:46;;;;;;;2.50;1.77;;;;;;;;;;2072863;28;20042;-79
2023/03/29 02:06:05;;;;;;;5.28;2.10;;;;;;;;;;2061760;28;20054;-79
2023/03/29 02:07:29;;;;;;;3.15;2.05;;;;;;;;;;2061032;28;20033;-78
2023/03/29 02:08:49;;;;;;;3.42;2.33;;;;;;;;;;2059705;28;20429;-79
2023/03/29 02:10:10;;;;;;;4.28;2.00;;;;;;;;;;2061019;28;20022;-79
2023/03/29 02:11:29;;;;;;;2.45;2.10;;;;;;;;;;2060364;28;20407;-79
2023/03/29 02:12:49;;;;;;;8.25;2.03;;;;;;;;;;2057317;28;20496;-79
2023/03/29 02:14:08;;;;;;;3.55;2.17;;;;;;;;;;2056745;28;20077;-79
2023/03/29 02:15:28;;;;;;;3.08;2.13;;;;;;;;;;2062952;28;20030;-79
2023/03/29 02:16:48;;;;;;;2.92;2.03;;;;;;;;;;2061485;28;20042;-79
2023/03/29 02:18:07;;;;;;;3.40;2.08;;;;;;;;;;2062993;28;20475;-80
2023/03/29 02:19:27;;;;;;;3.85;2.08;;;;;;;;;;2060978;28;20023;-79
2023/03/29 02:20:48;;;;;;;7.28;2.00;;;;;;;;;;2058458;28;20031;-80
2023/03/29 02:22:09;;;;;;;4.68;2.40;;;;;;;;;;2065932;28;20513;-79
2023/03/29 02:23:35;;;;;;;2.25;2.05;;;;;;;;;;2075773;28;20037;-79
2023/03/29 02:24:57;;;;;;;3.45;2.22;;;;;;;;;;2062102;28;20116;-80
2023/03/29 02:26:18;;;;;;;3.85;1.90;;;;;;;;;;2061225;28;20031;-79
2023/03/29 02:27:38;;;;;;;2.92;1.90;;;;;;;;;;2060011;28;20039;-79
2023/03/29 02:28:57;;;;;;;4.47;1.58;;;;;;;;;;2061033;28;20030;-79
2023/03/29 02:30:16;;;;;;;3.67;2.17;;;;;;;;;;2061020;28;20026;-78
2023/03/29 02:31:39;;;;;;;4.20;1.92;;;;;;;;;;2063780;28;20042;-79
2023/03/29 02:33:09;;;;;;;4.82;2.10;;;;;;;;;;2064246;28;20030;-78
2023/03/29 02:34:30;;;;;;;3.90;1.98;;;;;;;;;;2061778;28;20031;-79
2023/03/29 02:35:53;;;;;;;2.67;1.92;;;;;;;;;;2055479;28;20026;-79
2023/03/29 02:37:14;;;;;;;4.20;2.15;;;;;;;;;;2056068;28;20027;-79
2023/03/29 02:38:34;;;;;;;4.68;1.98;;;;;;;;;;2056065;28;20026;-79
2023/03/29 02:39:56;;;;;;;3.75;2.20;;;;;;;;;;2056182;28;20034;-80
2023/03/29 02:41:16;;;;;;;2.53;2.30;;;;;;;;;;2061045;28;20062;-79
2023/03/29 02:42:36;;;;;;;5.18;2.30;;;;;;;;;;2065849;28;20523;-79
2023/03/29 02:43:56;;;;;;;4.85;3.33;;;;;;;;;;2064841;28;20022;-79
2023/03/29 02:45:16;;;;;;;8.05;4.38;;;;;;;;;;2065002;28;20484;-79
2023/03/29 02:46:36;;;;;;;10.68;4.00;;;;;;;;;;2063860;28;20035;-79
2023/03/29 02:47:56;;;;;;;6.05;4.32;;;;;;;;;;2060622;28;20030;-79
2023/03/29 02:49:16;;;;;;;6.13;3.97;;;;;;;;;;2059241;28;20018;-79
2023/03/29 02:50:40;;;;;;;6.82;3.53;;;;;;;;;;2057149;28;20027;-79
2023/03/29 02:52:01;;;;;;;6.05;3.92;;;;;;;;;;2067600;28;20023;-79
2023/03/29 02:53:40;;;;;;;6.22;4.40;;;;;;;;;;2066020;28;20022;-80
2023/03/29 02:55:02;;;;;;;7.22;3.38;;;;;;;;;;2059847;28;20023;-79
2023/03/29 02:56:22;;;;;;;6.60;3.63;;;;;;;;;;2063059;28;20030;-79
2023/03/29 02:57:42;;;;;;;6.72;3.92;;;;;;;;;;2059056;28;20432;-79
2023/03/29 02:59:02;;;;;;;5.25;3.40;;;;;;;;;;2060654;28;20038;-78
2023/03/29 03:00:22;;;;;;;7.63;3.83;;;;;;;;;;2061542;28;20027;-78
2023/03/29 03:01:41;;;;;;;8.10;4.25;;;;;;;;;;2059045;28;20141;-78
2023/03/29 03:03:01;;;;;;;7.88;4.65;;;;;;;;;;2068222;28;20523;-79
2023/03/29 03:04:21;;;;;;;6.40;4.20;;;;;;;;;;2064271;28;20427;-79
2023/03/29 03:05:40;;;;;;;6.45;3.70;;;;;;;;;;2062814;28;20030;-79
2023/03/29 03:07:00;;;;;;;6.47;3.35;;;;;;;;;;2059516;28;20026;-79
2023/03/29 03:08:20;;;;;;;7.68;3.25;;;;;;;;;;2061285;28;20022;-78
2023/03/29 03:09:38;;;;;;;4.65;3.05;;;;;;;;;;2061262;28;20069;-78
2023/03/29 03:10:58;;;;;;;8.50;3.80;;;;;;;;;;2062680;28;20058;-79
2023/03/29 03:12:17;;;;;;;4.55;3.40;;;;;;;;;;2061181;28;20318;-79
2023/03/29 03:13:35;;;;;;;7.78;3.63;;;;;;;;;;2055443;28;20026;-79
2023/03/29 03:14:54;;;;;;;4.40;3.17;;;;;;;;;;2063683;28;20026;-79
2023/03/29 03:16:13;;;;;;;6.10;4.38;;;;;;;;;;2064906;28;20106;-79
2023/03/29 03:17:32;;;;;;;8.75;4.05;;;;;;;;;;2061212;28;20035;-79
2023/03/29 03:18:53;;;;;;;6.10;3.95;;;;;;;;;;2061236;28;20027;-79
2023/03/29 03:20:12;;;;;;;8.57;3.92;;;;;;;;;;2060463;28;20027;-79
2023/03/29 03:21:32;;;;;;;5.22;3.70;;;;;;;;;;2060638;28;20051;-78
2023/03/29 03:22:51;;;;;;;6.18;4.30;;;;;;;;;;2059549;28;20469;-79
2023/03/29 03:24:10;;;;;;;6.05;4.50;;;;;;;;;;2075473;28;20026;-79
2023/03/29 03:25:29;;;;;;;6.07;4.25;;;;;;;;;;2064404;28;20058;-79
2023/03/29 03:26:48;;;;;;;8.35;4.47;;;;;;;;;;2062229;28;20027;-78
2023/03/29 03:28:08;;;;;;;9.60;5.05;;;;;;;;;;2059073;28;20050;-79
2023/03/29 03:29:27;;;;;;;8.13;4.47;;;;;;;;;;2060451;28;20019;-79
2023/03/29 03:30:46;;;;;;;10.77;4.43;;;;;;;;;;2058753;28;20034;-78
2023/03/29 03:32:04;;;;;;;6.30;4.35;;;;;;;;;;2057590;28;20023;-78
2023/03/29 03:33:25;;;;;;;6.80;4.95;;;;;;;;;;2056345;28;20438;-78
2023/03/29 03:34:44;;;;;;;5.82;4.22;;;;;;;;;;2064485;28;20027;-78
2023/03/29 03:36:05;;;;;;;7.15;3.70;;;;;;;;;;2059228;28;20415;-78
2023/03/29 03:37:24;;;;;;;5.40;3.10;;;;;;;;;;2059797;28;20419;-79
2023/03/29 03:38:43;;;;;;;8.30;3.80;;;;;;;;;;2057856;28;20062;-78
2023/03/29 03:40:04;;;;;;;5.78;3.75;;;;;;;;;;2060723;28;20034;-79
2023/03/29 03:41:24;;;;;;;4.55;3.50;;;;;;;;;;2057225;28;20034;-78
2023/03/29 03:42:43;;;;;;;5.97;3.65;;;;;;;;;;2061480;28;20026;-78
2023/03/29 03:44:02;;;;;;;6.90;3.05;;;;;;;;;;2058214;28;20106;-78
2023/03/29 03:45:21;;;;;;;5.95;3.45;;;;;;;;;;2059197;28;20725;-78
2023/03/29 03:46:40;;;;;;;6.10;3.80;;;;;;;;;;2061034;28;20038;-78
2023/03/29 03:47:59;;;;;;;3.90;2.70;;;;;;;;;;2058782;28;20043;-79
2023/03/29 03:49:19;;;;;;;9.60;3.60;;;;;;;;;;2058825;28;20050;-78
2023/03/29 03:50:39;;;;;;;5.03;3.10;;;;;;;;;;2057371;28;20023;-78
2023/03/29 03:51:58;;;;;;;4.68;2.80;;;;;;;;;;2059890;28;20046;-78
2023/03/29 03:53:17;;;;;;;6.68;3.25;;;;;;;;;;2061320;28;20038;-78
2023/03/29 03:54:36;;;;;;;6.72;4.05;;;;;;;;;;2058635;28;20114;-79
2023/03/29 03:55:56;;;;;;;6.63;3.60;;;;;;;;;;2059965;28;20030;-78
2023/03/29 03:57:15;;;;;;;7.18;3.88;;;;;;;;;;2059752;28;20082;-79
2023/03/29 03:58:35;;;;;;;8.02;3.90;;;;;;;;;;2063321;28;20061;-79
2023/03/29 03:59:55;;;;;;;6.85;3.35;;;;;;;;;;2060103;28;20034;-79
2023/03/29 04:01:15;;;;;;;4.00;2.80;;;;;;;;;;2060012;28;20030;-79
2023/03/29 04:02:34;;;;;;;8.18;3.03;;;;;;;;;;2059390;28;20038;-79
2023/03/29 04:03:53;;;;;;;5.20;3.08;;;;;;;;;;2059762;28;20030;-79
2023/03/29 04:05:13;;;;;;;6.65;3.33;;;;;;;;;;2058720;28;20026;-79
2023/03/29 04:06:33;;;;;;;4.28;2.85;;;;;;;;;;2061749;28;20027;-79
2023/03/29 04:07:53;;;;;;;5.90;3.30;;;;;;;;;;2058482;28;20019;-78
2023/03/29 04:09:12;;;;;;;4.25;3.00;;;;;;;;;;2056868;28;20392;-79
2023/03/29 04:10:31;;;;;;;3.55;3.25;;;;;;;;;;2055722;28;20487;-78
2023/03/29 04:11:51;;;;;;;4.72;3.78;;;;;;;;;;2057681;28;20492;-78
2023/03/29 04:13:10;;;;;;;6.22;3.00;;;;;;;;;;2059940;28;20030;-77
2023/03/29 04:14:30;;;;;;;3.30;3.00;;;;;;;;;;2059763;28;20026;-79
2023/03/29 04:15:52;;;;;;;4.60;3.13;;;;;;;;;;2055034;28;20027;-78
2023/03/29 04:17:11;;;;;;;5.95;2.60;;;;;;;;;;2060641;28;20034;-78
2023/03/29 04:18:31;;;;;;;5.20;2.97;;;;;;;;;;2054897;28;20038;-78
2023/03/29 04:19:50;;;;;;;4.55;3.03;;;;;;;;;;2053922;28;21024;-81
2023/03/29 04:21:09;;;;;;;5.55;3.63;;;;;;;;;;2059262;28;20027;-80
2023/03/29 04:22:28;;;;;;;5.03;3.10;;;;;;;;;;2059540;28;20058;-79
2023/03/29 04:23:47;;;;;;;6.07;3.10;;;;;;;;;;2065625;28;20511;-79
2023/03/29 04:25:07;;;;;;;4.30;3.05;;;;;;;;;;2061383;28;20761;-79
2023/03/29 04:26:26;;;;;;;6.03;3.42;;;;;;;;;;2058376;28;20023;-78
2023/03/29 04:27:45;;;;;;;3.75;3.17;;;;;;;;;;2064162;28;20570;-78
2023/03/29 04:29:04;;;;;;;6.72;3.13;;;;;;;;;;2076343;28;20033;-79
2023/03/29 04:30:23;;;;;;;6.25;2.88;;;;;;;;;;2062113;28;20035;-78
2023/03/29 04:31:42;;;;;;;9.70;3.88;;;;;;;;;;2059357;28;20110;-78
2023/03/29 04:33:01;;;;;;;4.05;3.42;;;;;;;;;;2059371;28;20023;-78
2023/03/29 04:34:20;;;;;;;5.90;3.40;;;;;;;;;;2066311;28;20026;-79
2023/03/29 04:35:39;;;;;;;5.32;3.20;;;;;;;;;;2058188;28;20499;-79
2023/03/29 04:36:58;;;;;;;4.60;3.40;;;;;;;;;;2060541;28;20038;-79
2023/03/29 04:38:21;;;;;;;3.38;3.03;;;;;;;;;;2059469;28;20039;-79
2023/03/29 04:39:41;;;;;;;6.07;3.20;;;;;;;;;;2058021;28;20503;-79
2023/03/29 04:41:01;;;;;;;5.97;3.30;;;;;;;;;;2060908;28;20126;-79
2023/03/29 04:42:20;;;;;;;4.50;3.42;;;;;;;;;;2066473;28;20100;-79
2023/03/29 04:43:40;;;;;;;5.43;3.15;;;;;;;;;;2058407;28;20023;-78
2023/03/29 04:44:59;;;;;;;9.05;3.88;;;;;;;;;;2064912;28;20502;-81
2023/03/29 04:46:18;;;;;;;5.80;3.47;;;;;;;;;;2059862;28;20114;-82
2023/03/29 04:47:38;;;;;;;13.15;6.60;;;;;;;;;;2059522;28;20500;-81
2023/03/29 04:48:58;;;;;;;8.10;4.95;;;;;;;;;;2056884;28;20066;-81
2023/03/29 04:50:17;;;;;;;10.02;4.78;;;;;;;;;;2059576;28;20027;-83
2023/03/29 04:51:36;;;;;;;9.70;5.28;;;;;;;;;;2057498;28;20058;-82
2023/03/29 04:52:55;;;;;;;6.60;4.60;;;;;;;;;;2062041;28;20026;-82
2023/03/29 04:54:15;;;;;;;18.73;9.50;;;;;;;;;;2059751;28;20073;-84
2023/03/29 04:55:33;;;;;;;13.43;6.85;;;;;;;;;;2060755;28;20039;-81
2023/03/29 04:56:52;;;;;;;15.32;5.05;;;;;;;;;;2059672;28;20039;-81
2023/03/29 04:58:12;;;;;;;5.75;4.30;;;;;;;;;;2059854;28;20110;-79
2023/03/29 04:59:31;;;;;;;9.82;4.22;;;;;;;;;;2057864;28;20050;-78
2023/03/29 05:00:50;;;;;;;7.85;4.40;;;;;;;;;;2059064;28;20106;-79
2023/03/29 05:02:09;;;;;;;10.07;4.22;;;;;;;;;;2060464;28;20031;-77
2023/03/29 05:03:28;;;;;;;5.68;4.35;;;;;;;;;;2061105;28;20034;-79
2023/03/29 05:04:47;;;;;;;6.85;4.18;;;;;;;;;;2058280;28;20400;-82
2023/03/29 05:06:07;;;;;;;6.18;3.90;;;;;;;;;;2055457;28;20026;-80
2023/03/29 05:07:26;;;;;;;6.45;3.90;;;;;;;;;;2054943;28;20456;-79
2023/03/29 05:08:46;;;;;;;7.40;3.50;;;;;;;;;;2057470;28;20038;-78
2023/03/29 05:10:05;;;;;;;7.32;4.00;;;;;;;;;;2062275;28;20101;-80
2023/03/29 05:11:25;;;;;;;9.38;3.85;;;;;;;;;;2059450;28;20015;-81
2023/03/29 05:12:44;;;;;;;31.00;14.48;;;;;;;;;;2059123;28;20127;-81
2023/03/29 05:14:06;;;;;;;19.35;8.98;;;;;;;;;;2062382;28;20090;-80
2023/03/29 05:15:25;;;;;;;34.28;16.80;;;;;;;;;;2058612;28;20117;-80
2023/03/29 05:16:44;;;;;;;18.90;8.77;;;;;;;;;;2061593;28;20058;-81
2023/03/29 05:18:06;;;;;;;13.98;7.95;;;;;;;;;;2054264;28;20531;-82
2023/03/29 05:19:26;;;;;;;16.95;6.45;;;;;;;;;;2059574;28;20027;-82
2023/03/29 05:20:46;;;;;;;10.63;6.22;;;;;;;;;;2056152;28;20088;-81
2023/03/29 05:22:05;;;;;;;25.67;10.98;;;;;;;;;;2069837;28;20034;-81
2023/03/29 05:23:25;;;;;;;9.63;4.75;;;;;;;;;;2062204;28;20031;-81
2023/03/29 05:24:43;;;;;;;10.40;6.43;;;;;;;;;;2063134;28;20030;-81
2023/03/29 05:26:03;;;;;;;14.75;8.38;;;;;;;;;;2066833;28;20050;-81
2023/03/29 05:27:22;;;;;;;13.48;7.15;;;;;;;;;;2059644;28;20054;-80
2023/03/29 05:28:41;;;;;;;18.48;8.50;;;;;;;;;;2060350;28;20061;-81
2023/03/29 05:30:00;;;;;;;8.23;5.70;;;;;;;;;;2061734;28;20085;-78
2023/03/29 05:31:19;;;;;;;13.73;6.45;;;;;;;;;;2058900;28;20023;-79
2023/03/29 05:32:38;;;;;;;29.63;12.00;;;;;;;;;;2058769;28;20018;-79
2023/03/29 05:33:57;;;;;;;15.13;5.88;;;;;;;;;;2058858;28;20109;-79
2023/03/29 05:35:16;;;;;;;10.77;7.45;;;;;;;;;;2061582;28;20026;-79
2023/03/29 05:36:35;;;;;;;19.35;6.97;;;;;;;;;;2060108;28;20035;-79
2023/03/29 05:37:55;;;;;;;10.15;6.35;;;;;;;;;;2060806;28;20450;-79
2023/03/29 05:39:14;;;;;;;13.43;7.22;;;;;;;;;;2061671;28;20023;-80
2023/03/29 05:40:34;;;;;;;13.38;5.90;;;;;;;;;;2060083;28;20034;-79
2023/03/29 05:41:54;;;;;;;9.00;4.70;;;;;;;;;;2061438;28;20396;-80
2023/03/29 05:43:13;;;;;;;11.32;6.03;;;;;;;;;;2059957;28;20027;-78
2023/03/29 05:44:32;;;;;;;9.90;6.07;;;;;;;;;;2062219;28;20435;-78
2023/03/29 05:45:54;;;;;;;10.45;5.15;;;;;;;;;;2059770;28;20043;-78
2023/03/29 05:47:13;;;;;;;9.88;3.78;;;;;;;;;;2072897;28;20033;-77
2023/03/29 05:48:32;;;;;;;9.70;4.63;;;;;;;;;;2067090;28;20031;-79
2023/03/29 05:49:51;;;;;;;4.57;3.80;;;;;;;;;;2059373;28;20058;-78
2023/03/29 05:51:10;;;;;;;8.13;4.57;;;;;;;;;;2059788;28;20055;-78
2023/03/29 05:52:30;;;;;;;8.18;3.63;;;;;;;;;;2057471;28;20035;-78
2023/03/29 05:53:50;;;;;;;14.45;3.92;;;;;;;;;;2063327;28;20035;-79
2023/03/29 05:55:09;;;;;;;7.57;3.88;;;;;;;;;;2060608;28;20070;-78
2023/03/29 05:56:28;;;;;;;6.97;4.38;;;;;;;;;;2057267;28;20393;-78
2023/03/29 05:57:47;;;;;;;6.05;4.03;;;;;;;;;;2061248;28;20030;-79
2023/03/29 05:59:07;;;;;;;17.20;5.10;;;;;;;;;;2060720;28;20469;-78
2023/03/29 06:00:28;;;;;;;7.25;3.90;;;;;;;;;;2059510;28;20062;-78
2023/03/29 06:01:47;;;;;;;6.15;4.05;;;;;;;;;;2062090;28;20492;-79
2023/03/29 06:03:07;;;;;;;6.97;4.03;;;;;;;;;;2059852;28;20042;-78
2023/03/29 06:04:26;;;;;;;4.60;3.58;;;;;;;;;;2060739;28;20023;-78
2023/03/29 06:05:46;;;;;;;8.75;4.32;;;;;;;;;;2058447;28;20042;-79
2023/03/29 06:07:06;;;;;;;9.45;3.67;;;;;;;;;;2060963;28;20094;-78
2023/03/29 06:08:26;;;;;;;5.85;3.78;;;;;;;;;;2061538;28;20026;-79
2023/03/29 06:09:45;;;;;;;10.88;4.35;;;;;;;;;;2067746;28;20033;-78
2023/03/29 06:11:05;;;;;;;5.80;3.47;;;;;;;;;;2063807;28;20392;-78
2023/03/29 06:12:25;;;;;;;5.55;3.33;;;;;;;;;;2060556;28;20027;-79
2023/03/29 06:13:44;;;;;;;5.07;3.50;;;;;;;;;;2062753;28;20058;-79
2023/03/29 06:15:03;;;;;;;6.82;3.38;;;;;;;;;;2061746;28;20026;-78
2023/03/29 06:16:22;;;;;;;10.20;3.35;;;;;;;;;;2061935;28;20027;-79
2023/03/29 06:17:43;;;;;;;8.75;3.45;;;;;;;;;;2061363;28;20019;-78
2023/03/29 06:19:02;;;;;;;8.88;3.63;;;;;;;;;;2060519;28;20023;-78
2023/03/29 06:20:21;;;;;;;6.57;3.90;;;;;;;;;;2061597;28;20023;-79
2023/03/29 06:21:40;;;;;;;6.43;3.78;;;;;;;;;;2061212;28;20026;-79
2023/03/29 06:22:59;;;;;;;7.65;3.10;;;;;;;;;;2060296;28;20022;-79
2023/03/29 06:24:19;;;;;;;8.52;3.35;;;;;;;;;;2059147;28;20035;-78
2023/03/29 06:25:38;;;;;;;6.43;3.28;;;;;;;;;;2058789;28;20030;-78
2023/03/29 06:26:57;;;;;;;5.82;3.50;;;;;;;;;;2060697;28;20023;-78
2023/03/29 06:28:16;;;;;;;9.45;3.45;;;;;;;;;;2060816;28;20035;-78
2023/03/29 06:29:35;;;;;;;8.93;3.55;;;;;;;;;;2060336;28;20066;-79
2023/03/29 06:31:00;;;;;;;9.30;3.92;;;;;;;;;;2061782;28;20034;-78
2023/03/29 06:32:19;;;;;;;7.07;3.92;;;;;;;;;;2069602;28;20097;-79
2023/03/29 06:33:41;;;;;;;9.30;3.90;;;;;;;;;;2064895;28;20031;-78
2023/03/29 06:35:01;;;;;;;6.35;3.70;;;;;;;;;;2060329;28;20030;-78
2023/03/29 06:36:20;;;;;;;4.10;3.67;;;;;;;;;;2059340;28;20019;-79
2023/03/29 06:37:48;;;;;;;13.68;4.20;;;;;;;;;;2065904;28;20468;-78
2023/03/29 06:39:07;;;;;;;6.07;3.40;;;;;;;;;;2062438;28;20079;-79
2023/03/29 06:40:26;;;;;;;5.88;3.38;;;;;;;;;;2060427;28;20027;-79
2023/03/29 06:41:45;;;;;;;5.90;3.65;;;;;;;;;;2060240;28;20022;-79
2023/03/29 06:43:05;;;;;;;7.78;3.53;;;;;;;;;;2060757;28;20030;-79
2023/03/29 06:44:27;;;;;;;7.95;3.90;;;;;;;;;;2061705;28;20026;-79
2023/03/29 06:45:46;;;;;;;8.68;3.38;;;;;;;;;;2059475;28;20539;-79
2023/03/29 06:47:04;;;;;;;5.53;2.90;;;;;;;;;;2061209;28;20019;-79
2023/03/29 06:48:24;;;;;;;10.32;3.88;;;;;;;;;;2060504;28;20030;-78
2023/03/29 06:49:43;;;;;;;3.80;3.40;;;;;;;;;;2055703;28;20062;-78
2023/03/29 06:51:02;;;;;;;3.72;3.10;;;;;;;;;;2060628;28;20031;-78
2023/03/29 06:52:21;;;;;;;3.75;2.85;;;;;;;;;;2057329;28;20023;-79
2023/03/29 06:53:40;;;;;;;8.13;2.97;;;;;;;;;;2070237;28;20018;-78
2023/03/29 06:55:00;;;;;;;10.00;3.50;;;;;;;;;;2074920;28;20506;-79
2023/03/29 06:56:19;;;;;;;3.50;3.00;;;;;;;;;;2065091;28;20035;-79
2023/03/29 06:57:39;;;;;;;5.10;2.83;;;;;;;;;;2061327;28;20026;-79
2023/03/29 06:58:58;;;;;;;10.02;3.45;;;;;;;;;;2061347;28;20039;-79
2023/03/29 07:00:26;;;;;;;3.42;3.00;;;;;;;;;;2058869;28;20019;-78
2023/03/29 07:01:46;;;;;;;4.40;3.20;;;;;;;;;;2060183;28;20062;-79
2023/03/29 07:03:06;;;;;;;3.35;2.40;;;;;;;;;;2056744;28;20035;-80
2023/03/29 07:04:25;;;;;;;4.90;2.53;;;;;;;;;;2059796;28;20022;-80
2023/03/29 07:05:46;;;;;;;5.00;2.08;;;;;;;;;;2060112;28;20030;-79
2023/03/29 07:07:06;;;;;;;3.63;2.00;;;;;;;;;;2057475;28;20404;-79
2023/03/29 07:08:30;;;;;;;5.50;2.67;;;;;;;;;;2060816;28;20026;-79
2023/03/29 07:09:52;;;;;;;3.90;2.10;;;;;;;;;;2061087;28;20027;-81
2023/03/29 07:11:12;;;;;;;3.25;1.90;;;;;;;;;;2060028;28;20030;-81
2023/03/29 07:12:31;;;;;;;3.85;2.80;;;;;;;;;;2061784;28;20020;-80
2023/03/29 07:13:51;;;;;;;4.60;2.72;;;;;;;;;;2069553;28;20026;-80
2023/03/29 07:15:10;;;;;;;5.22;1.98;;;;;;;;;;2077144;28;20018;-79
2023/03/29 07:16:29;;;;;;;5.68;2.40;;;;;;;;;;2063305;28;20105;-80
2023/03/29 07:17:47;;;;;;;6.05;2.33;;;;;;;;;;2062158;28;20035;-79
2023/03/29 07:19:08;;;;;;;4.32;2.47;;;;;;;;;;2060907;28;20031;-79
2023/03/29 07:20:27;;;;;;;4.32;2.20;;;;;;;;;;2060779;28;20030;-79
2023/03/29 07:21:46;;;;;;;4.05;2.58;;;;;;;;;;2058679;28;20022;-80
2023/03/29 07:23:06;;;;;;;5.10;2.28;;;;;;;;;;2067871;28;20050;-79
2023/03/29 07:24:25;;;;;;;8.13;2.13;;;;;;;;;;2061835;28;20110;-78
2023/03/29 07:25:45;;;;;;;2.72;2.13;;;;;;;;;;2056335;28;20034;-79
2023/03/29 07:27:04;;;;;;;7.28;2.40;;;;;;;;;;2062620;28;20423;-79
2023/03/29 07:28:23;;;;;;;2.97;2.08;;;;;;;;;;2060081;28;20117;-78
2023/03/29 07:29:43;;;;;;;5.72;2.67;;;;;;;;;;2059851;28;20121;-79
2023/03/29 07:31:05;;;;;;;2.95;1.83;;;;;;;;;;2060194;28;20098;-79
2023/03/29 07:32:24;;;;;;;3.58;2.20;;;;;;;;;;2059621;28;20058;-79
2023/03/29 07:33:43;;;;;;;4.68;2.03;;;;;;;;;;2059337;28;20028;-78
2023/03/29 07:35:05;;;;;;;4.22;2.35;;;;;;;;;;2060812;28;20023;-78
2023/03/29 07:36:27;;;;;;;11.15;2.50;;;;;;;;;;2061001;28;20046;-79
2023/03/29 07:37:47;;;;;;;5.18;2.42;;;;;;;;;;2062558;28;20480;-78
2023/03/29 07:39:08;;;;;;;6.50;2.65;;;;;;;;;;2057309;28;20031;-78
2023/03/29 07:40:26;;;;;;;2.15;1.73;;;;;;;;;;2060645;28;20153;-79
2023/03/29 07:41:45;;;;;;;5.32;1.92;;;;;;;;;;2060172;28;20555;-78
2023/03/29 07:43:07;;;;;;;6.25;2.47;;;;;;;;;;2059871;28;20027;-78
2023/03/29 07:44:28;;;;;;;4.90;2.72;;;;;;;;;;2058640;28;20023;-78
2023/03/29 07:45:47;;;;;;;6.03;2.33;;;;;;;;;;2057022;28;20114;-78
2023/03/29 07:47:06;;;;;;;2.50;2.22;;;;;;;;;;2057469;28;20030;-78
2023/03/29 07:48:25;;;;;;;5.72;2.25;;;;;;;;;;2055970;28;20039;-77
2023/03/29 07:49:45;;;;;;;7.53;2.30;;;;;;;;;;2054691;28;20022;-78
2023/03/29 07:51:04;;;;;;;3.70;1.80;;;;;;;;;;2056707;28;20030;-78
2023/03/29 07:52:23;;;;;;;7.82;2.50;;;;;;;;;;2060367;28;20042;-80
2023/03/29 07:53:42;;;;;;;2.80;1.80;;;;;;;;;;2061836;28;20090;-80
2023/03/29 07:55:01;;;;;;;3.03;1.40;;;;;;;;;;2060203;28;20474;-79
2023/03/29 07:56:20;;;;;;;1.80;1.60;;;;;;;;;;2059865;28;20094;-79
2023/03/29 07:57:39;;;;;;;3.17;1.67;;;;;;;;;;2060380;28;20496;-79
2023/03/29 07:58:58;;;;;;;8.10;2.22;;;;;;;;;;2057308;28;20113;-79
2023/03/29 08:00:18;;;;;;;3.17;1.77;;;;;;;;;;2060318;28;20031;-78
2023/03/29 08:01:39;;;;;;;2.45;1.85;;;;;;;;;;2058426;28;20030;-81